Latest Weather Observations for Jandakot

IDW60801

Issued at 8:43 am WST Tuesday 16 August 2022 (issued every 10 minutes, with the page automatically refreshed every 10 minutes)

About weather observations | Map of weather stations | Latest weather observations for WA | Other Formats
Station Details ID: 009172 Name: JANDAKOT AERO Lat: -32.10 Lon: 115.88 Height: 30.0 m
Data from the previous 72 hours. | See also: Recent months at Jandakot
Date/Time
WST
Temp
°C
App
Temp
°C
Dew
Point
°C
Rel
Hum
%
Delta-T
°C
Wind Press
QNH
hPa
Press
MSL
hPa
Rain since
9am
mm
Dir  Spd
km/h
Gust
km/h
Spd
kts
Gust
kts
16/08:30am 15.7 11.7 14.2 91 0.9 W 28 39 15 21 1005.3 1005.3 16.0
16/08:29am 15.8 11.9 14.3 91 0.9 W 28 39 15 21 1005.3 1005.3 15.8
16/08:00am 17.9 15.9 13.8 77 2.3 WNW 17 24 9 13 1004.2 1004.2 14.0
16/07:30am 17.6 15.7 14.3 81 1.9 WNW 17 20 9 11 1004.0 1004.0 13.8
16/07:00am 17.8 14.7 13.5 76 2.4 WNW 22 28 12 15 1003.8 1003.8 13.8
16/06:30am 17.7 15.2 14.2 80 2.0 W 20 28 11 15 1003.6 1003.6 13.8
16/06:00am 17.8 15.0 14.3 80 2.0 W 22 33 12 18 1002.9 1002.8 13.8
16/05:30am 17.7 14.9 15.3 86 1.4 W 24 35 13 19 1003.0 1003.0 13.8
16/05:00am 17.9 16.2 15.7 87 1.3 WNW 19 30 10 16 1002.7 1002.6 13.8
16/04:30am 17.7 16.5 16.2 91 0.9 WNW 17 24 9 13 1002.5 1002.4 13.8
16/04:00am 18.0 16.0 15.6 86 1.4 W 20 30 11 16 1002.5 1002.4 13.6
16/03:30am 18.3 15.7 16.8 91 0.9 W 26 37 14 20 1002.5 1002.4 13.6
16/03:29am 18.3 15.3 16.8 91 0.9 W 28 39 15 21 1002.4 1002.3 13.6
16/03:14am 18.5 15.7 17.3 93 0.7 WNW 28 35 15 19 1002.6 1002.5 13.6
16/03:02am 18.7 16.4 17.7 94 0.6 NW 26 46 14 25 1002.2 1002.1 13.6
16/03:00am 18.7 16.5 17.9 95 0.5 NW 26 33 14 18 1002.4 1002.3 13.6
16/02:30am 18.9 15.9 17.7 93 0.7 NNW 30 43 16 23 1002.1 1002.0 11.8
16/02:00am 18.5 16.6 17.7 95 0.5 N 24 32 13 17 1002.0 1001.9 11.8
16/01:30am 18.7 16.4 17.7 94 0.6 N 26 33 14 18 1002.3 1002.2 11.6
16/01:00am 18.6 16.8 17.8 95 0.5 N 24 35 13 19 1002.4 1002.3 11.6
16/12:30am 18.3 16.0 17.5 95 0.5 N 26 33 14 18 1002.5 1002.4 11.4
16/12:00am 18.1 16.1 17.5 96 0.4 N 24 35 13 19 1002.5 1002.4 11.4
 
Date/Time
WST
Temp
°C
App
Temp
°C
Dew
Point
°C
Rel
Hum
%
Delta-T
°C
Wind Press
QNH
hPa
Press
MSL
hPa
Rain since
9am
mm
Dir  Spd
km/h
Gust
km/h
Spd
kts
Gust
kts
15/11:30pm 17.8 14.6 17.2 96 0.4 NNE 30 37 16 20 1002.8 1002.7 11.4
15/11:00pm 17.3 15.0 16.7 96 0.4 NNE 24 32 13 17 1003.3 1003.3 10.4
15/10:59pm 17.3 15.0 16.7 96 0.4 NNE 24 32 13 17 1003.3 1003.3 10.4
15/10:30pm 17.2 15.7 16.2 94 0.6 N 19 24 10 13 1004.5 1004.5 8.6
15/10:00pm 16.9 15.6 15.9 94 0.6 NNE 17 22 9 12 1004.4 1004.4 7.2
15/09:30pm 16.7 15.4 15.9 95 0.5 NNE 17 20 9 11 1004.7 1004.7 7.2
15/09:00pm 16.4 15.0 15.6 95 0.5 NNE 17 22 9 12 1005.5 1005.5 7.2
15/08:30pm 16.2 15.9 15.4 95 0.5 NNE 11 15 6 8 1006.4 1006.4 7.2
15/08:00pm 16.3 15.6 15.3 94 0.6 N 13 17 7 9 1006.8 1006.8 6.8
15/07:30pm 16.5 16.2 15.4 93 0.6 N 11 15 6 8 1006.7 1006.7 4.8
15/07:00pm 16.6 15.9 15.3 92 0.8 NE 13 17 7 9 1006.2 1006.2 2.8
15/06:30pm 16.5 15.7 15.0 91 0.9 NE 13 15 7 8 1006.3 1006.3 2.2
15/06:00pm 16.9 16.5 15.2 90 1.0 NE 11 13 6 7 1006.6 1006.6 0.8
15/05:30pm 18.2 18.3 14.5 79 2.1 ENE 7 9 4 5 1007.2 1007.2 0.2
15/05:00pm 19.0 18.5 13.8 72 3.0 ESE 9 9 5 5 1006.7 1006.7 0.0
15/04:30pm 19.7 20.5 12.5 63 4.0 CALM 0 0 0 0 1007.2 1007.2 0.0
15/04:00pm 19.7 18.8 12.5 63 4.1 NW 9 13 5 7 1007.4 1007.4 0.0
15/03:30pm 19.9 18.7 12.9 64 4.0 NW 11 15 6 8 1008.0 1008.0 0.0
15/03:00pm 19.8 16.5 12.8 64 4.0 NW 22 28 12 15 1008.7 1008.7 0.0
15/02:30pm 20.0 15.7 12.0 60 4.5 NW 26 35 14 19 1009.1 1009.1 0.0
15/02:00pm 20.0 16.1 12.0 60 4.5 NW 24 32 13 17 1009.0 1009.0 0.0
15/01:30pm 20.7 16.0 11.9 57 4.9 NW 28 35 15 19 1009.5 1009.5 0.0
15/01:00pm 21.1 16.5 12.3 57 5.0 NNW 28 35 15 19 1009.8 1009.8 0.0
15/12:30pm 21.8 16.2 10.3 48 6.3 N 30 39 16 21 1010.0 1010.0 0.0
15/12:00pm 21.4 15.8 10.3 49 6.0 N 30 41 16 22 1010.5 1010.5 0.0
15/11:30am 20.7 15.7 10.8 53 5.4 N 28 41 15 22 1011.1 1011.1 0.0
15/11:00am 19.8 14.6 10.2 54 5.2 NNE 28 35 15 19 1011.4 1011.4 0.0
15/10:30am 18.9 13.9 9.7 55 4.9 NNE 26 33 14 18 1012.2 1012.2 0.0
15/10:00am 17.9 13.1 8.7 55 4.8 NNE 24 32 13 17 1012.7 1012.7 0.0
15/09:30am 17.0 12.5 8.4 57 4.4 NNE 22 28 12 15 1013.0 1013.0 0.0
15/09:00am 15.9 10.8 7.7 58 4.1 NNE 24 33 13 18 1013.5 1013.5 0.0
15/08:30am 14.7 11.1 8.4 66 3.2 NNE 17 22 9 12 1013.9 1013.9 0.0
15/08:00am 12.9 11.0 9.0 77 2.0 NNE 9 13 5 7 1014.3 1014.3 0.0
15/07:30am 10.2 8.2 7.3 82 1.4 NE 7 7 4 4 1014.4 1014.4 0.0
15/07:00am 9.1 6.6 6.5 84 1.2 NE 9 11 5 6 1014.3 1014.3 0.0
15/06:30am 9.6 7.2 6.9 83 1.3 ENE 9 9 5 5 1014.3 1014.3 0.0
15/06:00am 9.8 7.8 6.9 82 1.4 ENE 7 9 4 5 1014.5 1014.5 0.0
15/05:30am 10.2 7.7 6.4 77 1.8 ENE 9 11 5 6 1014.5 1014.5 0.0
15/05:00am 11.4 9.0 7.1 75 2.1 NE 9 11 5 6 1014.7 1014.7 0.0
15/04:30am 12.2 10.0 7.7 74 2.2 NE 9 13 5 7 1014.9 1014.9 0.0
15/04:00am 11.9 11.0 7.8 76 2.0 NE 2 6 1 3 1014.9 1014.9 0.0
15/03:30am 11.8 9.7 8.3 79 1.7 NE 9 11 5 6 1015.0 1015.0 0.0
15/03:00am 11.6 9.8 7.9 78 1.8 NE 7 9 4 5 1015.3 1015.3 0.0
15/02:30am 11.8 9.3 8.1 78 1.8 ENE 11 13 6 7 1015.7 1015.7 0.0
15/02:00am 11.7 8.8 8.2 79 1.7 ENE 13 17 7 9 1016.3 1016.3 0.0
15/01:30am 10.5 7.9 7.6 82 1.4 NE 11 13 6 7 1016.7 1016.7 0.0
15/01:00am 10.9 7.9 7.8 81 1.5 ENE 13 15 7 8 1016.9 1016.9 0.0
15/12:30am 10.5 7.5 7.9 84 1.3 NE 13 17 7 9 1017.2 1017.2 0.0
15/12:00am 10.2 7.6 7.6 84 1.2 NE 11 11 6 6 1017.3 1017.3 0.0
 
Date/Time
WST
Temp
°C
App
Temp
°C
Dew
Point
°C
Rel
Hum
%
Delta-T
°C
Wind Press
QNH
hPa
Press
MSL
hPa
Rain since
9am
mm
Dir  Spd
km/h
Gust
km/h
Spd
kts
Gust
kts
14/11:30pm 10.8 8.6 8.0 83 1.4 NE 9 13 5 7 1017.6 1017.6 0.0
14/11:00pm 11.4 8.9 8.3 81 1.5 NE 11 13 6 7 1017.8 1017.8 0.0
14/10:30pm 12.0 10.0 8.7 80 1.6 NE 9 11 5 6 1018.0 1018.0 0.0
14/10:00pm 12.4 10.1 9.1 80 1.7 NE 11 13 6 7 1018.1 1018.1 0.0
14/09:30pm 12.8 10.6 9.4 80 1.7 NE 11 13 6 7 1018.1 1018.1 0.0
14/09:00pm 13.3 11.2 9.7 79 1.8 NE 11 13 6 7 1017.9 1017.9 0.0
14/08:30pm 12.7 12.9 10.6 87 1.1 CALM 0 0 0 0 1018.0 1018.0 0.0
14/08:00pm 12.6 12.7 10.0 84 1.3 CALM 0 0 0 0 1018.1 1018.1 0.0
14/07:30pm 13.3 13.0 10.1 81 1.7 ESE 2 6 1 3 1017.9 1017.9 0.0
14/07:00pm 13.6 12.2 10.8 83 1.5 ESE 9 11 5 6 1017.9 1017.9 0.0
14/06:30pm 14.6 13.6 11.0 79 1.9 S 7 9 4 5 1017.7 1017.7 0.0
14/06:00pm 15.9 14.9 10.2 69 3.0 NNE 6 7 3 4 1017.8 1017.8 0.0
14/05:30pm 16.8 15.3 9.0 60 4.0 NNE 7 9 4 5 1017.7 1017.7 0.0
14/05:00pm 17.2 16.1 10.1 63 3.8 NNE 6 7 3 4 1017.6 1017.6 0.0
14/04:30pm 17.9 16.1 7.3 50 5.3 NNW 6 11 3 6 1017.3 1017.3 0.0
14/04:00pm 17.9 15.7 7.9 52 5.1 NNW 9 15 5 8 1017.4 1017.4 0.0
14/03:30pm 17.9 15.5 8.5 54 4.8 NNW 11 15 6 8 1017.5 1017.5 0.0
14/03:00pm 18.0 16.1 7.7 51 5.2 NNW 7 13 4 7 1017.6 1017.6 0.0
14/02:30pm 17.8 15.2 7.8 52 5.1 NNE 11 15 6 8 1017.7 1017.7 0.0
14/02:00pm 17.9 15.6 7.6 51 5.2 N 9 17 5 9 1017.7 1017.7 0.0
14/01:30pm 18.0 15.7 7.4 50 5.4 N 9 15 5 8 1017.8 1017.8 0.0
14/01:00pm 18.0 15.9 8.3 53 5.0 NE 9 13 5 7 1018.0 1018.0 0.0
14/12:30pm 17.4 15.1 7.5 52 5.0 NNW 9 17 5 9 1018.3 1018.3 0.0
14/12:00pm 17.2 15.1 8.1 55 4.6 NE 9 13 5 7 1018.7 1018.7 0.0
14/11:30am 18.1 16.3 9.5 57 4.5 ENE 9 15 5 8 1018.8 1018.8 0.0
14/11:00am 17.4 15.3 9.8 61 4.0 E 11 17 6 9 1018.8 1018.8 0.0
14/10:30am 16.4 14.5 10.5 68 3.1 ENE 11 15 6 8 1019.1 1019.1 0.0
14/10:00am 15.1 13.8 11.3 78 2.0 NE 9 11 5 6 1019.2 1019.2 0.0
14/09:30am 13.5 12.6 10.5 82 1.6 NE 6 9 3 5 1019.2 1019.2 0.0
14/09:00am 12.1 12.3 10.5 90 0.8 CALM 0 0 0 0 1019.2 1019.2 13.2
14/08:30am 11.2 11.4 10.4 95 0.4 CALM 0 0 0 0 1019.1 1019.1 13.2
14/08:00am 9.5 9.3 8.9 96 0.3 CALM 0 0 0 0 1018.6 1018.6 13.2
14/07:30am 9.5 9.3 9.0 97 0.2 CALM 0 0 0 0 1018.0 1018.0 13.2
14/07:00am 8.8 7.7 8.4 97 0.2 NNE 4 9 2 5 1017.6 1017.6 13.2
14/06:30am 8.8 6.7 8.4 97 0.2 ENE 9 11 5 6 1017.1 1017.1 13.2
14/06:00am 8.1 7.2 7.7 97 0.2 NE 2 7 1 4 1016.7 1016.7 13.2
14/05:30am 8.0 6.3 7.4 96 0.3 NE 6 7 3 4 1016.2 1016.2 13.2
14/05:00am 8.3 6.6 7.5 95 0.4 NNE 6 9 3 5 1015.5 1015.5 13.2
14/04:30am 9.5 8.1 8.9 96 0.3 NE 6 7 3 4 1015.1 1015.1 13.2
14/04:00am 9.3 7.3 8.7 96 0.3 E 9 11 5 6 1014.9 1014.9 13.2
14/03:30am 8.8 8.4 8.4 97 0.2 CALM 0 0 0 0 1015.2 1015.2 13.2
14/03:00am 7.6 6.8 6.7 94 0.4 CALM 0 0 0 0 1015.2 1015.2 13.2
14/02:30am 8.8 8.3 8.0 95 0.4 CALM 0 0 0 0 1014.9 1014.9 13.2
14/02:00am 9.2 8.6 7.6 90 0.8 CALM 0 0 0 0 1014.4 1014.4 13.2
14/01:30am 10.5 8.9 8.1 85 1.2 SSW 6 7 3 4 1014.5 1014.5 13.2
14/01:00am 11.6 10.5 10.0 90 0.8 SW 6 17 3 9 1014.5 1014.5 13.2
14/12:30am 12.0 10.4 8.8 81 1.6 SW 7 7 4 4 1014.3 1014.3 13.2
14/12:00am 12.6 9.9 9.1 79 1.8 SW 13 17 7 9 1014.3 1014.3 13.2
 
Date/Time
WST
Temp
°C
App
Temp
°C
Dew
Point
°C
Rel
Hum
%
Delta-T
°C
Wind Press
QNH
hPa
Press
MSL
hPa
Rain since
9am
mm
Dir  Spd
km/h
Gust
km/h
Spd
kts
Gust
kts
13/11:30pm 12.9 10.8 9.9 82 1.5 SW 11 17 6 9 1014.2 1014.2 13.2
13/11:00pm 13.4 11.1 10.4 82 1.6 SW 13 20 7 11 1014.2 1014.2 13.2
13/10:30pm 13.8 10.7 10.2 79 1.9 SW 17 26 9 14 1013.6 1013.6 13.0
13/10:00pm 13.8 11.5 10.4 80 1.8 WSW 13 19 7 10 1013.2 1013.2 12.8
13/09:30pm 14.1 10.7 10.7 80 1.8 SW 19 26 10 14 1012.6 1012.6 12.8
13/09:00pm 14.8 11.3 10.8 77 2.1 WSW 20 28 11 15 1012.0 1012.0 11.8
13/08:30pm 15.1 10.4 10.5 74 2.4 W 26 37 14 20 1011.1 1011.1 11.8
13/08:00pm 15.2 9.5 11.0 76 2.2 W 32 46 17 25 1010.5 1010.5 11.8
13/07:30pm 14.9 10.7 11.1 78 2.0 WNW 24 43 13 23 1009.8 1009.8 11.8
13/07:00pm 15.1 10.8 10.9 76 2.2 WNW 24 33 13 18 1009.2 1009.2 11.8
13/06:30pm 13.3 11.5 10.8 85 1.3 NNW 11 17 6 9 1008.7 1008.7 11.8
13/06:00pm 13.4 9.3 10.2 81 1.7 WNW 22 32 12 17 1008.5 1008.5 11.8
13/05:48pm 13.2 6.9 9.8 80 1.7 NW 33 52 18 28 1008.6 1008.6 11.8
13/05:44pm 13.4 6.3 9.6 78 1.9 WNW 37 52 20 28 1008.6 1008.6 11.8
13/05:35pm 15.3 10.3 11.1 76 2.2 WNW 28 50 15 27 1008.6 1008.6 10.6
13/05:34pm 15.5 10.5 10.9 74 2.4 WNW 28 41 15 22 1008.3 1008.3 10.4
13/05:30pm 15.5 11.2 10.9 74 2.4 WNW 24 32 13 17 1007.9 1007.9 10.4
13/05:03pm 16.2 10.1 10.3 68 3.1 WNW 33 59 18 32 1007.5 1007.5 10.2
13/05:00pm 16.7 10.5 10.1 65 3.5 WNW 33 50 18 27 1007.3 1007.3 10.2
13/04:30pm 16.7 11.4 11.4 71 2.9 WNW 30 39 16 21 1006.8 1006.8 10.2
13/04:23pm 16.2 11.4 11.8 75 2.4 WNW 28 41 15 22 1006.8 1006.8 10.2
13/04:04pm 15.4 11.6 12.5 83 1.6 NW 24 35 13 19 1006.9 1006.9 10.0
13/04:00pm 15.5 11.2 12.1 80 1.9 NW 26 37 14 20 1006.6 1006.6 8.6
13/03:30pm 16.8 11.8 13.9 83 1.6 WNW 33 46 18 25 1006.3 1006.3 8.4
13/03:19pm 15.4 12.6 14.3 93 0.6 NNW 22 50 12 27 1006.6 1006.6 8.4
13/03:16pm 14.4 12.0 13.9 97 0.3 N 19 22 10 12 1006.5 1006.5 8.4
13/03:00pm 13.9 12.5 13.4 97 0.3 N 13 20 7 11 1006.2 1006.2 8.4
13/02:56pm 13.8 12.4 13.3 97 0.3 N 13 20 7 11 1006.4 1006.4 8.4
13/02:53pm 13.7 12.2 13.2 97 0.3 N 13 20 7 11 1006.1 1006.1 8.4
13/02:51pm 13.6 11.7 13.1 97 0.3 N 15 20 8 11 1006.2 1006.2 8.4
13/02:37pm 13.0 10.2 12.5 97 0.3 N 19 24 10 13 1006.4 1006.4 8.0
13/02:30pm 12.8 9.9 12.3 97 0.3 N 19 22 10 12 1006.3 1006.3 6.4
13/02:29pm 12.8 9.7 12.3 97 0.3 N 20 24 11 13 1006.3 1006.3 6.2
13/02:10pm 12.5 8.1 11.7 95 0.4 NNE 26 39 14 21 1006.1 1006.1 4.0
13/02:00pm 12.4 9.2 11.8 96 0.3 N 20 26 11 14 1006.0 1006.0 3.6
13/01:41pm 12.3 8.6 11.5 95 0.4 N 22 32 12 17 1005.9 1005.9 3.4
13/01:30pm 12.5 8.1 11.6 94 0.5 N 26 37 14 20 1006.2 1006.2 2.8
13/01:27pm 12.4 7.9 11.5 94 0.5 N 26 37 14 20 1006.1 1006.1 2.8
13/01:15pm 12.6 6.7 11.0 90 0.8 N 33 46 18 25 1006.3 1006.3 1.8
13/01:00pm 12.9 5.5 11.1 89 1.0 N 41 70 22 38 1005.8 1005.8 1.8
13/12:54pm 13.2 6.0 10.7 85 1.3 N 39 70 21 38 1005.5 1005.5 1.4
13/12:30pm 13.5 6.7 9.4 76 2.1 NNE 35 46 19 25 1005.4 1005.4 1.0
13/12:00pm 13.6 7.0 8.7 72 2.5 N 33 44 18 24 1006.7 1006.7 1.0
13/11:30am 13.9 7.1 7.0 63 3.4 N 32 50 17 27 1007.4 1007.4 0.2
13/11:05am 15.2 8.3 4.6 49 5.0 N 30 52 16 28 1007.4 1007.4 0.0
13/11:00am 15.2 8.2 4.0 47 5.2 N 30 41 16 22 1008.1 1008.1 0.0
13/10:49am 16.2 9.3 2.6 40 6.1 N 28 46 15 25 1007.6 1007.6 0.0
13/10:30am 15.8 8.7 3.3 43 5.7 NNE 30 41 16 22 1007.2 1007.2 0.0
13/10:00am 15.9 9.7 2.0 39 6.2 NNE 24 33 13 18 1008.1 1008.1 0.0
13/09:30am 15.8 9.5 1.5 38 6.3 NNE 24 33 13 18 1008.1 1008.1 0.0
13/09:00am 15.3 10.0 1.8 40 6.0 NNE 19 26 10 14 1008.6 1008.6 0.0

Other formats

Comma delimited format used in spreadsheet applications
http://www.bom.gov.au/fwo/IDW60801/IDW60801.94609.axf

JavaScript Object Notation format (JSON) in row-major order
http://www.bom.gov.au/fwo/IDW60801/IDW60801.94609.json

Data quality

Most of these data are generated automatically and are frequently updated. Quality checks on data are not normally performed. It is possible for incorrect values to appear. Refer to information at About Latest Weather Observations and please check the disclaimer before using these data.